sensor_id;sensor_type;location;lat;lon;timestamp;P1;durP1;ratioP1;P2;durP2;ratioP2
64936;SDS011;51452;47.698;19.050;2022-09-12T00:01:48;5.07;;;2.25;;
64936;SDS011;51452;47.698;19.050;2022-09-12T00:04:13;3.05;;;2.20;;
64936;SDS011;51452;47.698;19.050;2022-09-12T00:06:39;3.85;;;2.55;;
64936;SDS011;51452;47.698;19.050;2022-09-12T00:09:08;3.42;;;2.50;;
64936;SDS011;51452;47.698;19.050;2022-09-12T00:11:36;3.88;;;2.50;;
64936;SDS011;51452;47.698;19.050;2022-09-12T00:14:03;3.13;;;2.35;;
64936;SDS011;51452;47.698;19.050;2022-09-12T00:16:31;3.72;;;2.60;;
64936;SDS011;51452;47.698;19.050;2022-09-12T00:18:59;3.83;;;2.50;;
64936;SDS011;51452;47.698;19.050;2022-09-12T00:21:25;2.60;;;2.25;;
64936;SDS011;51452;47.698;19.050;2022-09-12T00:23:50;3.05;;;2.35;;
64936;SDS011;51452;47.698;19.050;2022-09-12T00:26:16;3.38;;;2.47;;
64936;SDS011;51452;47.698;19.050;2022-09-12T00:28:44;3.33;;;2.50;;
64936;SDS011;51452;47.698;19.050;2022-09-12T00:31:11;4.05;;;2.72;;
64936;SDS011;51452;47.698;19.050;2022-09-12T00:33:39;4.28;;;2.30;;
64936;SDS011;51452;47.698;19.050;2022-09-12T00:36:06;5.78;;;2.55;;
64936;SDS011;51452;47.698;19.050;2022-09-12T00:38:33;3.03;;;2.15;;
64936;SDS011;51452;47.698;19.050;2022-09-12T00:41:02;4.20;;;2.30;;
64936;SDS011;51452;47.698;19.050;2022-09-12T00:45:55;3.67;;;2.22;;
64936;SDS011;51452;47.698;19.050;2022-09-12T00:48:23;3.75;;;2.30;;
64936;SDS011;51452;47.698;19.050;2022-09-12T00:50:54;2.92;;;2.35;;
64936;SDS011;51452;47.698;19.050;2022-09-12T00:53:20;3.80;;;2.40;;
64936;SDS011;51452;47.698;19.050;2022-09-12T00:55:46;3.45;;;2.30;;
64936;SDS011;51452;47.698;19.050;2022-09-12T01:00:49;2.92;;;2.03;;
64936;SDS011;51452;47.698;19.050;2022-09-12T01:03:16;3.33;;;2.08;;
64936;SDS011;51452;47.698;19.050;2022-09-12T01:06:27;4.10;;;2.20;;
64936;SDS011;51452;47.698;19.050;2022-09-12T01:08:42;5.15;;;2.50;;
64936;SDS011;51452;47.698;19.050;2022-09-12T01:11:08;5.13;;;2.45;;
64936;SDS011;51452;47.698;19.050;2022-09-12T01:13:34;4.20;;;2.40;;
64936;SDS011;51452;47.698;19.050;2022-09-12T01:16:01;3.00;;;2.28;;
64936;SDS011;51452;47.698;19.050;2022-09-12T01:27:45;2.60;;;1.92;;
64936;SDS011;51452;47.698;19.050;2022-09-12T01:38:35;3.38;;;2.05;;
64936;SDS011;51452;47.698;19.050;2022-09-12T01:41:09;3.55;;;2.38;;
64936;SDS011;51452;47.698;19.050;2022-09-12T01:51:37;3.17;;;2.10;;
64936;SDS011;51452;47.698;19.050;2022-09-12T01:54:30;2.70;;;1.95;;
64936;SDS011;51452;47.698;19.050;2022-09-12T01:57:09;2.83;;;1.80;;
64936;SDS011;51452;47.698;19.050;2022-09-12T01:59:48;3.13;;;1.80;;
64936;SDS011;51452;47.698;19.050;2022-09-12T02:02:22;2.85;;;2.00;;
64936;SDS011;51452;47.698;19.050;2022-09-12T02:04:58;3.67;;;2.13;;
64936;SDS011;51452;47.698;19.050;2022-09-12T02:07:31;4.15;;;2.10;;
64936;SDS011;51452;47.698;19.050;2022-09-12T02:10:08;3.65;;;2.25;;
64936;SDS011;51452;47.698;19.050;2022-09-12T02:12:42;2.97;;;2.05;;
64936;SDS011;51452;47.698;19.050;2022-09-12T02:15:12;4.85;;;2.13;;
64936;SDS011;51452;47.698;19.050;2022-09-12T02:17:41;3.28;;;2.10;;
64936;SDS011;51452;47.698;19.050;2022-09-12T02:20:13;3.22;;;2.33;;
64936;SDS011;51452;47.698;19.050;2022-09-12T02:22:42;7.40;;;2.50;;
64936;SDS011;51452;47.698;19.050;2022-09-12T02:25:09;3.10;;;2.33;;
64936;SDS011;51452;47.698;19.050;2022-09-12T02:27:40;3.42;;;2.25;;
64936;SDS011;51452;47.698;19.050;2022-09-12T02:30:09;4.88;;;2.50;;
64936;SDS011;51452;47.698;19.050;2022-09-12T02:35:15;3.75;;;2.60;;
64936;SDS011;51452;47.698;19.050;2022-09-12T02:37:56;4.38;;;3.00;;
64936;SDS011;51452;47.698;19.050;2022-09-12T02:40:28;4.40;;;2.28;;
64936;SDS011;51452;47.698;19.050;2022-09-12T02:42:55;6.20;;;2.60;;
64936;SDS011;51452;47.698;19.050;2022-09-12T02:45:21;7.05;;;3.20;;
64936;SDS011;51452;47.698;19.050;2022-09-12T02:47:52;3.95;;;2.90;;
64936;SDS011;51452;47.698;19.050;2022-09-12T02:50:24;4.40;;;2.58;;
64936;SDS011;51452;47.698;19.050;2022-09-12T02:52:50;7.43;;;3.60;;
64936;SDS011;51452;47.698;19.050;2022-09-12T02:55:17;5.32;;;3.03;;
64936;SDS011;51452;47.698;19.050;2022-09-12T02:57:43;4.85;;;2.90;;
64936;SDS011;51452;47.698;19.050;2022-09-12T03:00:09;4.00;;;2.72;;
64936;SDS011;51452;47.698;19.050;2022-09-12T03:13:43;4.43;;;2.72;;
64936;SDS011;51452;47.698;19.050;2022-09-12T03:24:49;4.07;;;2.95;;
64936;SDS011;51452;47.698;19.050;2022-09-12T03:27:18;3.45;;;2.72;;
64936;SDS011;51452;47.698;19.050;2022-09-12T03:29:50;4.22;;;2.72;;
64936;SDS011;51452;47.698;19.050;2022-09-12T03:32:16;5.35;;;2.88;;
64936;SDS011;51452;47.698;19.050;2022-09-12T03:34:42;4.10;;;3.00;;
64936;SDS011;51452;47.698;19.050;2022-09-12T03:37:07;4.65;;;3.00;;
64936;SDS011;51452;47.698;19.050;2022-09-12T03:39:33;4.35;;;2.70;;
64936;SDS011;51452;47.698;19.050;2022-09-12T03:41:58;3.28;;;2.50;;
64936;SDS011;51452;47.698;19.050;2022-09-12T03:44:23;4.93;;;2.60;;
64936;SDS011;51452;47.698;19.050;2022-09-12T03:46:49;4.78;;;2.45;;
64936;SDS011;51452;47.698;19.050;2022-09-12T03:49:15;3.13;;;2.30;;
64936;SDS011;51452;47.698;19.050;2022-09-12T03:51:41;4.38;;;2.60;;
64936;SDS011;51452;47.698;19.050;2022-09-12T03:54:07;3.70;;;2.63;;
64936;SDS011;51452;47.698;19.050;2022-09-12T03:56:33;3.90;;;2.53;;
64936;SDS011;51452;47.698;19.050;2022-09-12T03:58:59;3.67;;;2.80;;
64936;SDS011;51452;47.698;19.050;2022-09-12T04:01:25;5.03;;;2.83;;
64936;SDS011;51452;47.698;19.050;2022-09-12T04:03:51;7.47;;;3.47;;
64936;SDS011;51452;47.698;19.050;2022-09-12T04:06:19;4.53;;;3.13;;
64936;SDS011;51452;47.698;19.050;2022-09-12T04:08:49;4.97;;;3.00;;
64936;SDS011;51452;47.698;19.050;2022-09-12T04:11:16;5.30;;;3.60;;
64936;SDS011;51452;47.698;19.050;2022-09-12T04:13:42;4.80;;;3.42;;
64936;SDS011;51452;47.698;19.050;2022-09-12T04:16:09;5.65;;;2.90;;
64936;SDS011;51452;47.698;19.050;2022-09-12T04:18:36;4.57;;;3.22;;
64936;SDS011;51452;47.698;19.050;2022-09-12T04:21:05;5.05;;;2.92;;
64936;SDS011;51452;47.698;19.050;2022-09-12T04:23:35;5.25;;;3.33;;
64936;SDS011;51452;47.698;19.050;2022-09-12T04:26:01;6.72;;;3.05;;
64936;SDS011;51452;47.698;19.050;2022-09-12T04:28:30;4.88;;;3.13;;
64936;SDS011;51452;47.698;19.050;2022-09-12T04:31:00;3.78;;;3.05;;
64936;SDS011;51452;47.698;19.050;2022-09-12T04:33:27;5.93;;;2.92;;
64936;SDS011;51452;47.698;19.050;2022-09-12T04:35:53;4.57;;;2.90;;
64936;SDS011;51452;47.698;19.050;2022-09-12T04:38:18;5.05;;;3.00;;
64936;SDS011;51452;47.698;19.050;2022-09-12T04:40:43;5.30;;;3.28;;
64936;SDS011;51452;47.698;19.050;2022-09-12T04:43:09;3.35;;;2.65;;
64936;SDS011;51452;47.698;19.050;2022-09-12T04:45:34;4.18;;;3.03;;
64936;SDS011;51452;47.698;19.050;2022-09-12T04:48:00;4.65;;;3.00;;
64936;SDS011;51452;47.698;19.050;2022-09-12T04:50:26;5.20;;;2.65;;
64936;SDS011;51452;47.698;19.050;2022-09-12T04:52:52;3.92;;;2.88;;
64936;SDS011;51452;47.698;19.050;2022-09-12T04:55:18;5.85;;;2.90;;
64936;SDS011;51452;47.698;19.050;2022-09-12T04:57:44;4.00;;;2.47;;
64936;SDS011;51452;47.698;19.050;2022-09-12T05:00:10;4.43;;;2.90;;
64936;SDS011;51452;47.698;19.050;2022-09-12T05:02:39;4.75;;;3.00;;
64936;SDS011;51452;47.698;19.050;2022-09-12T05:05:05;4.68;;;2.80;;
64936;SDS011;51452;47.698;19.050;2022-09-12T05:07:31;4.80;;;2.92;;
64936;SDS011;51452;47.698;19.050;2022-09-12T05:09:57;4.60;;;3.30;;
64936;SDS011;51452;47.698;19.050;2022-09-12T05:12:23;4.35;;;3.50;;
64936;SDS011;51452;47.698;19.050;2022-09-12T05:14:49;3.08;;;2.40;;
64936;SDS011;51452;47.698;19.050;2022-09-12T05:17:14;4.68;;;2.80;;
64936;SDS011;51452;47.698;19.050;2022-09-12T05:19:40;4.00;;;2.80;;
64936;SDS011;51452;47.698;19.050;2022-09-12T05:22:05;4.63;;;3.30;;
64936;SDS011;51452;47.698;19.050;2022-09-12T05:24:31;4.38;;;2.67;;
64936;SDS011;51452;47.698;19.050;2022-09-12T05:26:57;4.00;;;2.80;;
64936;SDS011;51452;47.698;19.050;2022-09-12T05:29:22;3.60;;;2.42;;
64936;SDS011;51452;47.698;19.050;2022-09-12T05:31:49;4.90;;;3.28;;
64936;SDS011;51452;47.698;19.050;2022-09-12T05:34:17;5.28;;;2.92;;
64936;SDS011;51452;47.698;19.050;2022-09-12T05:36:43;4.28;;;2.85;;
64936;SDS011;51452;47.698;19.050;2022-09-12T05:39:08;4.10;;;2.95;;
64936;SDS011;51452;47.698;19.050;2022-09-12T05:41:34;4.45;;;2.88;;
64936;SDS011;51452;47.698;19.050;2022-09-12T05:44:00;4.13;;;2.72;;
64936;SDS011;51452;47.698;19.050;2022-09-12T05:46:28;4.43;;;2.97;;
64936;SDS011;51452;47.698;19.050;2022-09-12T05:48:56;5.65;;;2.92;;
64936;SDS011;51452;47.698;19.050;2022-09-12T05:51:26;5.05;;;2.67;;
64936;SDS011;51452;47.698;19.050;2022-09-12T05:53:53;4.40;;;3.10;;
64936;SDS011;51452;47.698;19.050;2022-09-12T05:56:22;7.05;;;2.97;;
64936;SDS011;51452;47.698;19.050;2022-09-12T05:58:59;7.22;;;2.78;;
64936;SDS011;51452;47.698;19.050;2022-09-12T06:01:26;4.80;;;2.90;;
64936;SDS011;51452;47.698;19.050;2022-09-12T06:03:53;5.18;;;3.03;;
64936;SDS011;51452;47.698;19.050;2022-09-12T06:06:20;3.88;;;2.92;;
64936;SDS011;51452;47.698;19.050;2022-09-12T06:08:48;4.55;;;3.40;;
64936;SDS011;51452;47.698;19.050;2022-09-12T06:11:17;6.57;;;3.40;;
64936;SDS011;51452;47.698;19.050;2022-09-12T06:13:44;4.05;;;3.13;;
64936;SDS011;51452;47.698;19.050;2022-09-12T06:16:14;5.30;;;3.60;;
64936;SDS011;51452;47.698;19.050;2022-09-12T06:18:45;7.90;;;3.42;;
64936;SDS011;51452;47.698;19.050;2022-09-12T06:21:12;4.40;;;3.40;;
64936;SDS011;51452;47.698;19.050;2022-09-12T06:23:38;7.07;;;3.72;;
64936;SDS011;51452;47.698;19.050;2022-09-12T06:26:05;7.93;;;3.72;;
64936;SDS011;51452;47.698;19.050;2022-09-12T06:28:37;5.35;;;3.83;;
64936;SDS011;51452;47.698;19.050;2022-09-12T06:31:04;5.85;;;3.67;;
64936;SDS011;51452;47.698;19.050;2022-09-12T06:33:41;5.07;;;3.45;;
64936;SDS011;51452;47.698;19.050;2022-09-12T06:36:10;6.18;;;3.40;;
64936;SDS011;51452;47.698;19.050;2022-09-12T06:38:38;5.43;;;3.42;;
64936;SDS011;51452;47.698;19.050;2022-09-12T06:41:04;4.13;;;2.92;;
64936;SDS011;51452;47.698;19.050;2022-09-12T06:43:31;5.18;;;3.00;;
64936;SDS011;51452;47.698;19.050;2022-09-12T06:45:57;6.53;;;3.65;;
64936;SDS011;51452;47.698;19.050;2022-09-12T06:48:22;5.75;;;2.95;;
64936;SDS011;51452;47.698;19.050;2022-09-12T06:51:01;7.20;;;3.22;;
64936;SDS011;51452;47.698;19.050;2022-09-12T06:53:31;5.30;;;3.15;;
64936;SDS011;51452;47.698;19.050;2022-09-12T06:56:04;5.47;;;3.55;;
64936;SDS011;51452;47.698;19.050;2022-09-12T06:58:35;5.75;;;2.97;;
64936;SDS011;51452;47.698;19.050;2022-09-12T07:03:31;4.30;;;2.65;;
64936;SDS011;51452;47.698;19.050;2022-09-12T07:06:01;5.20;;;2.95;;
64936;SDS011;51452;47.698;19.050;2022-09-12T07:08:31;3.95;;;2.92;;
64936;SDS011;51452;47.698;19.050;2022-09-12T07:10:59;4.20;;;3.20;;
64936;SDS011;51452;47.698;19.050;2022-09-12T07:13:32;5.05;;;3.35;;
64936;SDS011;51452;47.698;19.050;2022-09-12T07:16:00;8.57;;;3.30;;
64936;SDS011;51452;47.698;19.050;2022-09-12T07:18:26;4.93;;;3.50;;
64936;SDS011;51452;47.698;19.050;2022-09-12T07:20:52;4.38;;;3.08;;
64936;SDS011;51452;47.698;19.050;2022-09-12T07:23:17;4.80;;;3.30;;
64936;SDS011;51452;47.698;19.050;2022-09-12T07:25:43;4.68;;;3.05;;
64936;SDS011;51452;47.698;19.050;2022-09-12T07:28:08;4.80;;;3.60;;
64936;SDS011;51452;47.698;19.050;2022-09-12T07:30:35;5.38;;;3.47;;
64936;SDS011;51452;47.698;19.050;2022-09-12T07:33:01;5.25;;;3.28;;
64936;SDS011;51452;47.698;19.050;2022-09-12T07:35:26;4.95;;;2.88;;
64936;SDS011;51452;47.698;19.050;2022-09-12T07:37:51;4.53;;;2.95;;
64936;SDS011;51452;47.698;19.050;2022-09-12T07:40:17;4.32;;;2.30;;
64936;SDS011;51452;47.698;19.050;2022-09-12T07:42:42;4.78;;;3.10;;
64936;SDS011;51452;47.698;19.050;2022-09-12T07:45:08;4.25;;;2.70;;
64936;SDS011;51452;47.698;19.050;2022-09-12T07:47:34;5.32;;;3.25;;
64936;SDS011;51452;47.698;19.050;2022-09-12T07:49:59;6.18;;;2.50;;
64936;SDS011;51452;47.698;19.050;2022-09-12T07:52:25;3.60;;;2.70;;
64936;SDS011;51452;47.698;19.050;2022-09-12T07:54:50;6.32;;;2.72;;
64936;SDS011;51452;47.698;19.050;2022-09-12T07:57:16;4.88;;;2.83;;
64936;SDS011;51452;47.698;19.050;2022-09-12T07:59:41;4.03;;;2.67;;
64936;SDS011;51452;47.698;19.050;2022-09-12T08:02:12;3.97;;;2.75;;
64936;SDS011;51452;47.698;19.050;2022-09-12T08:04:38;4.63;;;2.72;;
64936;SDS011;51452;47.698;19.050;2022-09-12T08:07:06;3.85;;;2.75;;
64936;SDS011;51452;47.698;19.050;2022-09-12T08:09:31;3.97;;;2.50;;
64936;SDS011;51452;47.698;19.050;2022-09-12T08:11:57;3.65;;;2.53;;
64936;SDS011;51452;47.698;19.050;2022-09-12T08:14:23;4.70;;;2.97;;
64936;SDS011;51452;47.698;19.050;2022-09-12T08:16:48;4.40;;;2.90;;
64936;SDS011;51452;47.698;19.050;2022-09-12T08:19:13;5.65;;;2.50;;
64936;SDS011;51452;47.698;19.050;2022-09-12T08:21:39;3.00;;;2.22;;
64936;SDS011;51452;47.698;19.050;2022-09-12T08:24:05;3.85;;;2.50;;
64936;SDS011;51452;47.698;19.050;2022-09-12T08:26:31;3.40;;;2.58;;
64936;SDS011;51452;47.698;19.050;2022-09-12T08:28:57;5.93;;;2.63;;
64936;SDS011;51452;47.698;19.050;2022-09-12T08:31:23;4.35;;;2.17;;
64936;SDS011;51452;47.698;19.050;2022-09-12T08:33:51;3.42;;;2.20;;
64936;SDS011;51452;47.698;19.050;2022-09-12T08:36:19;3.30;;;2.17;;
64936;SDS011;51452;47.698;19.050;2022-09-12T08:38:49;2.90;;;2.25;;
64936;SDS011;51452;47.698;19.050;2022-09-12T08:44:07;5.10;;;2.10;;
64936;SDS011;51452;47.698;19.050;2022-09-12T08:46:50;4.40;;;2.58;;
64936;SDS011;51452;47.698;19.050;2022-09-12T08:50:20;3.15;;;2.20;;
64936;SDS011;51452;47.698;19.050;2022-09-12T08:55:01;4.10;;;2.28;;
64936;SDS011;51452;47.698;19.050;2022-09-12T08:57:27;3.75;;;2.15;;
64936;SDS011;51452;47.698;19.050;2022-09-12T08:59:53;7.43;;;2.63;;
64936;SDS011;51452;47.698;19.050;2022-09-12T09:05:11;2.45;;;1.90;;
64936;SDS011;51452;47.698;19.050;2022-09-12T09:10:56;2.97;;;2.17;;
64936;SDS011;51452;47.698;19.050;2022-09-12T09:16:40;4.30;;;1.83;;
64936;SDS011;51452;47.698;19.050;2022-09-12T09:19:51;2.70;;;1.85;;
64936;SDS011;51452;47.698;19.050;2022-09-12T09:22:11;4.95;;;1.95;;
64936;SDS011;51452;47.698;19.050;2022-09-12T09:24:54;3.95;;;1.73;;
64936;SDS011;51452;47.698;19.050;2022-09-12T09:27:36;4.47;;;2.00;;
64936;SDS011;51452;47.698;19.050;2022-09-12T09:30:17;3.83;;;1.80;;
64936;SDS011;51452;47.698;19.050;2022-09-12T09:32:49;3.85;;;1.85;;
64936;SDS011;51452;47.698;19.050;2022-09-12T09:35:21;4.18;;;2.00;;
64936;SDS011;51452;47.698;19.050;2022-09-12T09:38:00;3.15;;;1.65;;
64936;SDS011;51452;47.698;19.050;2022-09-12T09:45:50;2.85;;;2.30;;
64936;SDS011;51452;47.698;19.050;2022-09-12T09:50:45;3.58;;;2.10;;
64936;SDS011;51452;47.698;19.050;2022-09-12T09:53:27;3.10;;;2.13;;
64936;SDS011;51452;47.698;19.050;2022-09-12T09:55:59;2.85;;;2.05;;
64936;SDS011;51452;47.698;19.050;2022-09-12T09:58:31;3.45;;;1.70;;
64936;SDS011;51452;47.698;19.050;2022-09-12T10:01:00;2.30;;;1.63;;
64936;SDS011;51452;47.698;19.050;2022-09-12T10:03:31;2.72;;;1.85;;
64936;SDS011;51452;47.698;19.050;2022-09-12T10:06:34;3.97;;;2.17;;
64936;SDS011;51452;47.698;19.050;2022-09-12T10:09:16;2.38;;;1.73;;
64936;SDS011;51452;47.698;19.050;2022-09-12T10:11:44;2.55;;;2.00;;
64936;SDS011;51452;47.698;19.050;2022-09-12T10:16:51;2.90;;;1.90;;
64936;SDS011;51452;47.698;19.050;2022-09-12T10:19:19;2.67;;;1.80;;
64936;SDS011;51452;47.698;19.050;2022-09-12T10:21:50;3.17;;;1.75;;
64936;SDS011;51452;47.698;19.050;2022-09-12T10:26:50;4.30;;;1.73;;
64936;SDS011;51452;47.698;19.050;2022-09-12T10:29:23;3.15;;;2.58;;
64936;SDS011;51452;47.698;19.050;2022-09-12T10:31:52;2.08;;;1.58;;
64936;SDS011;51452;47.698;19.050;2022-09-12T10:36:53;2.38;;;1.70;;
64936;SDS011;51452;47.698;19.050;2022-09-12T10:39:23;2.47;;;1.40;;
64936;SDS011;51452;47.698;19.050;2022-09-12T10:41:49;2.42;;;1.70;;
64936;SDS011;51452;47.698;19.050;2022-09-12T10:44:15;2.20;;;1.60;;
64936;SDS011;51452;47.698;19.050;2022-09-12T10:46:50;4.28;;;1.80;;
64936;SDS011;51452;47.698;19.050;2022-09-12T10:51:45;2.22;;;1.70;;
64936;SDS011;51452;47.698;19.050;2022-09-12T10:54:10;4.00;;;2.45;;
64936;SDS011;51452;47.698;19.050;2022-09-12T11:02:14;2.00;;;1.50;;
64936;SDS011;51452;47.698;19.050;2022-09-12T11:10:05;3.17;;;1.20;;
64936;SDS011;51452;47.698;19.050;2022-09-12T11:13:16;1.60;;;1.30;;
64936;SDS011;51452;47.698;19.050;2022-09-12T11:15:53;2.78;;;1.40;;
64936;SDS011;51452;47.698;19.050;2022-09-12T11:18:46;1.50;;;1.30;;
64936;SDS011;51452;47.698;19.050;2022-09-12T11:27:33;2.05;;;1.30;;
64936;SDS011;51452;47.698;19.050;2022-09-12T11:30:21;2.58;;;1.30;;
64936;SDS011;51452;47.698;19.050;2022-09-12T11:35:25;2.20;;;1.45;;
64936;SDS011;51452;47.698;19.050;2022-09-12T11:38:38;1.83;;;1.52;;
64936;SDS011;51452;47.698;19.050;2022-09-12T11:41:01;3.85;;;1.48;;
64936;SDS011;51452;47.698;19.050;2022-09-12T11:43:41;1.60;;;1.27;;
64936;SDS011;51452;47.698;19.050;2022-09-12T11:57:22;2.03;;;1.58;;
64936;SDS011;51452;47.698;19.050;2022-09-12T11:59:56;3.00;;;1.40;;
64936;SDS011;51452;47.698;19.050;2022-09-12T12:02:28;3.35;;;1.55;;
64936;SDS011;51452;47.698;19.050;2022-09-12T12:07:41;1.83;;;1.38;;
64936;SDS011;51452;47.698;19.050;2022-09-12T12:12:55;2.15;;;1.25;;
64936;SDS011;51452;47.698;19.050;2022-09-12T12:15:23;1.60;;;1.20;;
64936;SDS011;51452;47.698;19.050;2022-09-12T12:17:59;1.80;;;1.20;;
64936;SDS011;51452;47.698;19.050;2022-09-12T12:20:26;2.13;;;1.20;;
64936;SDS011;51452;47.698;19.050;2022-09-12T12:22:52;4.78;;;1.30;;
64936;SDS011;51452;47.698;19.050;2022-09-12T12:38:33;2.38;;;1.40;;
64936;SDS011;51452;47.698;19.050;2022-09-12T12:43:41;2.30;;;1.20;;
64936;SDS011;51452;47.698;19.050;2022-09-12T12:46:12;1.80;;;1.02;;
64936;SDS011;51452;47.698;19.050;2022-09-12T12:48:54;2.10;;;1.35;;
64936;SDS011;51452;47.698;19.050;2022-09-12T12:53:57;1.92;;;1.20;;
64936;SDS011;51452;47.698;19.050;2022-09-12T12:59:00;1.85;;;1.40;;
64936;SDS011;51452;47.698;19.050;2022-09-12T13:01:28;4.07;;;1.10;;
64936;SDS011;51452;47.698;19.050;2022-09-12T13:04:04;1.88;;;1.25;;
64936;SDS011;51452;47.698;19.050;2022-09-12T13:11:58;2.40;;;1.25;;
64936;SDS011;51452;47.698;19.050;2022-09-12T13:22:47;2.05;;;1.33;;
64936;SDS011;51452;47.698;19.050;2022-09-12T13:25:17;2.50;;;1.30;;
64936;SDS011;51452;47.698;19.050;2022-09-12T13:27:55;1.90;;;1.40;;
64936;SDS011;51452;47.698;19.050;2022-09-12T13:30:43;2.55;;;1.13;;
64936;SDS011;51452;47.698;19.050;2022-09-12T13:33:26;1.85;;;1.17;;
64936;SDS011;51452;47.698;19.050;2022-09-12T13:47:59;2.17;;;1.00;;
64936;SDS011;51452;47.698;19.050;2022-09-12T13:50:38;3.50;;;1.02;;
64936;SDS011;51452;47.698;19.050;2022-09-12T13:53:10;1.77;;;1.00;;
64936;SDS011;51452;47.698;19.050;2022-09-12T13:55:40;1.45;;;0.90;;
64936;SDS011;51452;47.698;19.050;2022-09-12T14:00:58;1.30;;;0.90;;
64936;SDS011;51452;47.698;19.050;2022-09-12T14:03:33;1.15;;;0.80;;
64936;SDS011;51452;47.698;19.050;2022-09-12T14:06:24;3.08;;;1.20;;
64936;SDS011;51452;47.698;19.050;2022-09-12T14:08:51;1.52;;;0.98;;
64936;SDS011;51452;47.698;19.050;2022-09-12T14:11:23;1.55;;;0.95;;
64936;SDS011;51452;47.698;19.050;2022-09-12T14:13:51;1.40;;;1.00;;
64936;SDS011;51452;47.698;19.050;2022-09-12T14:16:17;2.40;;;0.95;;
64936;SDS011;51452;47.698;19.050;2022-09-12T14:18:45;1.15;;;0.77;;
64936;SDS011;51452;47.698;19.050;2022-09-12T14:24:08;2.78;;;0.90;;
64936;SDS011;51452;47.698;19.050;2022-09-12T14:26:36;3.08;;;0.95;;
64936;SDS011;51452;47.698;19.050;2022-09-12T14:29:05;1.48;;;0.88;;
64936;SDS011;51452;47.698;19.050;2022-09-12T14:31:33;1.35;;;0.80;;
64936;SDS011;51452;47.698;19.050;2022-09-12T14:34:07;1.27;;;0.80;;
64936;SDS011;51452;47.698;19.050;2022-09-12T14:36:43;1.20;;;1.00;;
64936;SDS011;51452;47.698;19.050;2022-09-12T14:44:41;3.45;;;0.90;;
64936;SDS011;51452;47.698;19.050;2022-09-12T14:47:19;2.00;;;1.00;;
64936;SDS011;51452;47.698;19.050;2022-09-12T14:49:47;1.20;;;0.73;;
64936;SDS011;51452;47.698;19.050;2022-09-12T14:52:36;1.67;;;0.90;;
64936;SDS011;51452;47.698;19.050;2022-09-12T14:55:27;1.70;;;0.80;;
64936;SDS011;51452;47.698;19.050;2022-09-12T14:58:07;2.22;;;0.90;;
64936;SDS011;51452;47.698;19.050;2022-09-12T15:00:56;1.15;;;0.80;;
64936;SDS011;51452;47.698;19.050;2022-09-12T15:09:05;1.00;;;0.60;;
64936;SDS011;51452;47.698;19.050;2022-09-12T15:11:32;1.83;;;0.95;;
64936;SDS011;51452;47.698;19.050;2022-09-12T15:13:57;2.90;;;0.80;;
64936;SDS011;51452;47.698;19.050;2022-09-12T15:16:30;1.80;;;0.75;;
64936;SDS011;51452;47.698;19.050;2022-09-12T15:18:55;1.20;;;0.80;;
64936;SDS011;51452;47.698;19.050;2022-09-12T15:21:21;2.17;;;0.80;;
64936;SDS011;51452;47.698;19.050;2022-09-12T15:23:46;1.73;;;0.80;;
64936;SDS011;51452;47.698;19.050;2022-09-12T15:26:17;2.97;;;0.90;;
64936;SDS011;51452;47.698;19.050;2022-09-12T15:28:44;1.48;;;0.90;;
64936;SDS011;51452;47.698;19.050;2022-09-12T15:31:21;1.25;;;0.70;;
64936;SDS011;51452;47.698;19.050;2022-09-12T15:33:49;0.93;;;0.70;;
64936;SDS011;51452;47.698;19.050;2022-09-12T15:36:15;2.30;;;1.23;;
64936;SDS011;51452;47.698;19.050;2022-09-12T15:38:43;2.20;;;0.70;;
64936;SDS011;51452;47.698;19.050;2022-09-12T15:41:10;1.00;;;0.80;;
64936;SDS011;51452;47.698;19.050;2022-09-12T15:43:38;2.08;;;1.10;;
64936;SDS011;51452;47.698;19.050;2022-09-12T15:46:04;0.88;;;0.70;;
64936;SDS011;51452;47.698;19.050;2022-09-12T15:48:31;2.70;;;0.73;;
64936;SDS011;51452;47.698;19.050;2022-09-12T15:50:56;1.90;;;0.98;;
64936;SDS011;51452;47.698;19.050;2022-09-12T15:53:25;1.17;;;0.80;;
64936;SDS011;51452;47.698;19.050;2022-09-12T15:55:51;1.30;;;0.82;;
64936;SDS011;51452;47.698;19.050;2022-09-12T15:58:17;2.10;;;1.00;;
64936;SDS011;51452;47.698;19.050;2022-09-12T16:00:42;1.80;;;1.00;;
64936;SDS011;51452;47.698;19.050;2022-09-12T16:03:14;1.73;;;0.85;;
64936;SDS011;51452;47.698;19.050;2022-09-12T16:05:45;1.30;;;0.82;;
64936;SDS011;51452;47.698;19.050;2022-09-12T16:08:10;3.63;;;0.90;;
64936;SDS011;51452;47.698;19.050;2022-09-12T16:10:35;1.05;;;0.73;;
64936;SDS011;51452;47.698;19.050;2022-09-12T16:13:01;1.25;;;0.95;;
64936;SDS011;51452;47.698;19.050;2022-09-12T16:15:28;3.25;;;1.00;;
64936;SDS011;51452;47.698;19.050;2022-09-12T16:17:53;1.92;;;1.00;;
64936;SDS011;51452;47.698;19.050;2022-09-12T16:20:19;0.90;;;0.75;;
64936;SDS011;51452;47.698;19.050;2022-09-12T16:22:46;1.77;;;1.00;;
64936;SDS011;51452;47.698;19.050;2022-09-12T16:25:12;2.08;;;0.90;;
64936;SDS011;51452;47.698;19.050;2022-09-12T16:27:37;1.83;;;1.20;;
64936;SDS011;51452;47.698;19.050;2022-09-12T16:30:03;3.83;;;1.08;;
64936;SDS011;51452;47.698;19.050;2022-09-12T16:32:31;1.40;;;1.00;;
64936;SDS011;51452;47.698;19.050;2022-09-12T16:34:56;2.08;;;0.90;;
64936;SDS011;51452;47.698;19.050;2022-09-12T16:37:22;1.85;;;1.00;;
64936;SDS011;51452;47.698;19.050;2022-09-12T16:39:47;1.70;;;0.88;;
64936;SDS011;51452;47.698;19.050;2022-09-12T16:42:14;2.03;;;1.00;;
64936;SDS011;51452;47.698;19.050;2022-09-12T16:44:43;2.28;;;0.90;;
64936;SDS011;51452;47.698;19.050;2022-09-12T16:47:08;1.67;;;0.90;;
64936;SDS011;51452;47.698;19.050;2022-09-12T16:49:34;1.98;;;1.00;;
64936;SDS011;51452;47.698;19.050;2022-09-12T16:51:59;1.20;;;0.80;;
64936;SDS011;51452;47.698;19.050;2022-09-12T16:54:24;1.20;;;0.90;;
64936;SDS011;51452;47.698;19.050;2022-09-12T16:56:50;3.42;;;0.90;;
64936;SDS011;51452;47.698;19.050;2022-09-12T16:59:15;4.72;;;0.80;;
64936;SDS011;51452;47.698;19.050;2022-09-12T17:01:41;2.80;;;0.80;;
64936;SDS011;51452;47.698;19.050;2022-09-12T17:04:08;6.07;;;1.00;;
64936;SDS011;51452;47.698;19.050;2022-09-12T17:06:35;9.38;;;1.00;;
64936;SDS011;51452;47.698;19.050;2022-09-12T17:09:01;2.00;;;0.98;;
64936;SDS011;51452;47.698;19.050;2022-09-12T17:11:29;3.33;;;1.30;;
64936;SDS011;51452;47.698;19.050;2022-09-12T17:13:57;2.55;;;1.27;;
64936;SDS011;51452;47.698;19.050;2022-09-12T17:16:24;4.07;;;1.30;;
64936;SDS011;51452;47.698;19.050;2022-09-12T17:18:50;3.25;;;1.25;;
64936;SDS011;51452;47.698;19.050;2022-09-12T17:21:17;4.18;;;1.40;;
64936;SDS011;51452;47.698;19.050;2022-09-12T17:23:43;2.55;;;1.13;;
64936;SDS011;51452;47.698;19.050;2022-09-12T17:26:09;3.80;;;1.48;;
64936;SDS011;51452;47.698;19.050;2022-09-12T17:28:35;1.80;;;0.88;;
64936;SDS011;51452;47.698;19.050;2022-09-12T17:31:03;3.22;;;1.15;;
64936;SDS011;51452;47.698;19.050;2022-09-12T17:33:29;2.08;;;1.15;;
64936;SDS011;51452;47.698;19.050;2022-09-12T17:35:59;1.30;;;1.13;;
64936;SDS011;51452;47.698;19.050;2022-09-12T17:38:26;2.17;;;1.20;;
64936;SDS011;51452;47.698;19.050;2022-09-12T17:40:52;3.97;;;1.40;;
64936;SDS011;51452;47.698;19.050;2022-09-12T17:43:17;2.17;;;1.35;;
64936;SDS011;51452;47.698;19.050;2022-09-12T17:45:43;2.53;;;1.10;;
64936;SDS011;51452;47.698;19.050;2022-09-12T17:48:09;5.38;;;1.30;;
64936;SDS011;51452;47.698;19.050;2022-09-12T17:50:38;1.77;;;1.33;;
64936;SDS011;51452;47.698;19.050;2022-09-12T17:53:05;2.80;;;1.40;;
64936;SDS011;51452;47.698;19.050;2022-09-12T17:55:35;3.35;;;1.25;;